• Join FlightAware (Why Join?)
  • Login
  • US Flag 
08:45PM EDT


 

Airport Tracker/Info


-or-


 

Live Flight TrackerFlight Track Log ✈ N400PU ✈ 20-May-2013 ✈ KLNK - KLAF

Flight Track Log - Related Links

Times and Time Zones

All times are in EDT time to prevent confusion due to time zone crossing. See the N400PU flight status page for this flight to view local times or setup timezone preferences in your user account.

Time Position Orientation Groundspeed Altitude Reporting Facility
EDT Latitude Longitude Course Direction KTS MPH feet Rate Location/Type
05:30PM 40.8233 -96.7447 172° South 161 185 1,800  Level Minneapolis Center
05:31PM 40.7683 -96.7339 172° South 206 237 4,800 2,640 Climbing Minneapolis Center
05:32PM 40.7664 -96.7369 230° Southwest 196 226 5,600 2,760 Climbing Minneapolis Center
05:32PM 40.7253 -96.6778 133° Southeast 244 281 7,600 2,460 Climbing Minneapolis Center
05:33PM 40.7283 -96.6606 77° East 246 283 8,200 2,520 Climbing Minneapolis Center
05:34PM 40.7233 -96.5328 93° East 289 333 11,300 2,880 Climbing Minneapolis Center
05:35PM 40.7189 -96.4194 93° East 306 352 14,200 2,820 Climbing Minneapolis Center
05:36PM 40.7153 -96.3069 92° East 309 356 17,200 2,760 Climbing Minneapolis Center
05:37PM 40.7103 -96.1953 93° East 308 354 20,000 2,040 Climbing Minneapolis Center
05:38PM 40.7058 -96.0772 93° East 318 366 21,500 1,380 Climbing Minneapolis Center
05:39PM 40.7008 -95.9478 93° East 340 391 22,900 1,500 Climbing Minneapolis Center
05:40PM 40.6933 -95.7978 94° East 346 398 24,700 1,440 Climbing Minneapolis Center
05:41PM 40.6875 -95.6747 94° East 343 395 25,900 1,080 Climbing Minneapolis Center
05:42PM 40.6814 -95.5444 93° East 349 402 27,000 1,140 Climbing Minneapolis Center
05:43PM 40.6744 -95.4081 94° East 366 421 28,300 1,260 Climbing Minneapolis Center
05:44PM 40.6675 -95.2703 94° East 375 432 29,700 1,260 Climbing Minneapolis Center
05:45PM 40.6619 -95.1289 93° East 383 441 30,900 1,080 Climbing Minneapolis Center
05:46PM 40.6544 -94.9819 94° East 396 456 32,000 1,200 Climbing Minneapolis Center
05:47PM 40.6447 -94.8044 94° East 404 465 33,400 1,080 Climbing Minneapolis Center
05:48PM 40.6367 -94.6558 94° East 406 467 34,300 900 Climbing Minneapolis Center
05:49PM 40.6286 -94.5003 94° East 410 472 35,300 780 Climbing Minneapolis Center
05:50PM 40.6211 -94.3792 95° East 414 476 35,900 720 Climbing Minneapolis Center
05:51PM 40.6119 -94.1953 94° East 421 484 36,800 780 Climbing Minneapolis Center
05:52PM 40.6031 -94.0428 94° East 422 486 37,500 660 Climbing Minneapolis Center
05:53PM 40.5925 -93.8892 95° East 423 487 38,200 600 Climbing Minneapolis Center
05:54PM 40.5833 -93.7669 96° East 423 487 38,800 660 Climbing Minneapolis Center
05:55PM 40.5772 -93.5842 92° East 423 487 39,600 600 Climbing Minneapolis Center
05:56PM 40.5792 -93.4911 88° East 421 484 39,800 540 Climbing Kansas City Center
05:57PM 40.5797 -93.3386 90° East 421 484 40,500 480 Climbing Kansas City Center
05:58PM 40.5806 -93.1886 90° East 414 476 40,900 240 Climbing Kansas City Center
05:59PM 40.5808 -93.0200 90° East 417 480 41,000  Climbing Kansas City Center
06:00PM 40.5806 -92.8467 90° East 422 486 41,000  Level Kansas City Center
06:01PM 40.5797 -92.6944 90° East 432 497 41,000  Level Kansas City Center
06:02PM 40.5808 -92.5350 89° East 440 506 41,000  Level Kansas City Center
06:03PM 40.5792 -92.3744 91° East 441 507 41,000  Level Kansas City Center
06:04PM 40.5778 -92.2039 91° East 444 511 41,000  Level Kansas City Center
06:05PM 40.5764 -92.0406 91° East 447 514 41,000  Level Kansas City Center
06:06PM 40.5742 -91.8761 91° East 451 519 41,000  Level Kansas City Center
06:07PM 40.5719 -91.6781 91° East 453 521 41,000  Level Kansas City Center
06:08PM 40.5689 -91.5136 91° East 453 521 41,000  Level Kansas City Center
06:08PM 40.5683 -91.4803 91° East 454 522 41,000  Level Chicago Center
06:09PM 40.5664 -91.3472 91° East 457 526 41,000  Level Kansas City Center
06:10PM 40.5625 -91.1831 92° East 460 529 41,000  Level Kansas City Center
06:10PM 40.5631 -91.1167 89° East 459 528 41,000  Level Chicago Center
06:12PM 40.5606 -90.9467 91° East 465 535 41,000  Level Chicago Center
06:13PM 40.5561 -90.7775 92° East 465 535 41,000  Level Chicago Center
06:14PM 40.5536 -90.6072 91° East 466 536 41,000  Level Chicago Center
06:15PM 40.5489 -90.4394 92° East 464 534 41,000  Level Chicago Center
06:16PM 40.5447 -90.2733 92° East 460 529 41,000  Level Chicago Center
06:17PM 40.5394 -90.0961 92° East 460 529 41,000  Level Chicago Center
06:18PM 40.5325 -89.8992 93° East 455 524 41,000  Level Chicago Center
06:19PM 40.5275 -89.7311 92° East 462 532 41,000  Level Chicago Center
06:20PM 40.5239 -89.5644 92° East 460 529 41,000 -240 Level Chicago Center
06:21PM 40.5178 -89.3797 92° East 462 532 40,600 -1,020 Descending Chicago Center
06:22PM 40.5131 -89.2178 92° East 449 517 39,000 -1,500 Descending Chicago Center
06:23PM 40.5078 -89.0586 92° East 440 506 37,500 -1,800 Descending Chicago Center
06:24PM 40.5006 -88.9031 93° East 431 496 35,300 -2,160 Descending Chicago Center
06:25PM 40.4939 -88.7333 93° East 440 506 33,100 -2,040 Descending Chicago Center
06:26PM 40.4886 -88.5675 92° East 458 527 31,100 -2,040 Descending Chicago Center
06:27PM 40.4819 -88.4017 93° East 460 529 29,000 -1,020 Descending Chicago Center
06:28PM 40.4739 -88.2036 93° East 461 531 29,000  Level Chicago Center
06:29PM 40.4672 -88.0386 93° East 458 527 29,000 -1,260 Level Chicago Center
06:30PM 40.4603 -87.8983 94° East 405 466 26,400 -2,400 Descending Chicago Center
06:31PM 40.4536 -87.7519 93° East 400 460 24,000 -1,200 Descending Chicago Center
06:32PM 40.4467 -87.5922 93° East 371 427 24,000 -120 Level Chicago Center
06:33PM 40.4419 -87.4764 93° East 331 381 23,800 -540 Descending Chicago Center
06:34PM 40.4589 -87.3636 79° East 329 379 23,000 -420 Descending Chicago Center
06:35PM 40.4914 -87.2636 67° East 310 357 23,000 -660 Level Chicago Center
06:36PM 40.5261 -87.1653 65° Northeast 302 348 21,700 -2,940 Descending Chicago Center
06:37PM 40.5556 -87.0744 67° East 337 388 17,900 -4,680 Descending Chicago Center
06:37PM 40.5664 -87.0475 62° Northeast 334 384 16,900 -4,320 Descending Chicago Center
06:38PM 40.5781 -86.9856 76° East 355 409 14,900 -3,540 Descending Chicago Center
06:38PM 40.5608 -86.9272 111° Southeast 338 389 13,300 -3,360 Descending Chicago Center
06:39PM 40.5386 -86.8708 117° Southeast 320 368 11,500 -3,000 Descending Chicago Center
06:39PM 40.5228 -86.8269 115° Southeast 309 356 10,200 -2,940 Descending Chicago Center
06:40PM 40.5044 -86.7811 118° Southeast 294 338 8,600 -3,600 Descending Chicago Center
06:40PM 40.4789 -86.7203 119° Southeast 278 320 6,500 -3,300 Descending Chicago Center
06:41PM 40.4594 -86.6989 140° Southeast 273 314 5,300 -2,880 Descending Chicago Center
06:42PM 40.4189 -86.6786 159° South 256 295 3,500 -2,340 Descending Chicago Center
06:42PM 40.3969 -86.6975 213° Southwest 227 261 3,000 -420 Descending Chicago Center
06:43PM 40.3889 -86.7336 254° West 218 251 3,100  Climbing Chicago Center
06:43PM 40.3906 -86.7572 275° West 190 219 3,000 -300 Descending Chicago Center
06:44PM 40.3964 -86.7928 282° West 186 214 2,800 -720 Descending Chicago Center
06:44PM 40.3967 -86.8178 271° West 163 188 2,300 -600 Descending Chicago Center
06:45PM 40.4039 -86.8572 284° West 173 199 2,200 -180 Descending Chicago Center